sensor_id;sensor_type;location;lat;lon;timestamp;pressure;altitude;pressure_sealevel;temperature
37452;BMP280;23314;51.114;6.900;2022-07-29T00:00:57;101265.84;;;21.48
37452;BMP280;23314;51.114;6.900;2022-07-29T00:03:22;101256.25;;;21.47
37452;BMP280;23314;51.114;6.900;2022-07-29T00:05:48;101255.19;;;21.44
37452;BMP280;23314;51.114;6.900;2022-07-29T00:08:13;101250.97;;;21.43
37452;BMP280;23314;51.114;6.900;2022-07-29T00:10:40;101244.53;;;21.41
37452;BMP280;23314;51.114;6.900;2022-07-29T00:13:06;101246.47;;;21.40
37452;BMP280;23314;51.114;6.900;2022-07-29T00:15:31;101239.09;;;21.41
37452;BMP280;23314;51.114;6.900;2022-07-29T00:17:56;101238.31;;;21.40
37452;BMP280;23314;51.114;6.900;2022-07-29T00:20:22;101236.81;;;21.39
37452;BMP280;23314;51.114;6.900;2022-07-29T00:22:47;101226.47;;;21.38
37452;BMP280;23314;51.114;6.900;2022-07-29T00:25:12;101226.94;;;21.36
37452;BMP280;23314;51.114;6.900;2022-07-29T00:27:38;101217.78;;;21.33
37452;BMP280;23314;51.114;6.900;2022-07-29T00:30:05;101215.53;;;21.32
37452;BMP280;23314;51.114;6.900;2022-07-29T00:32:31;101212.06;;;21.31
37452;BMP280;23314;51.114;6.900;2022-07-29T00:34:56;101214.03;;;21.31
37452;BMP280;23314;51.114;6.900;2022-07-29T00:37:40;101214.97;;;21.28
37452;BMP280;23314;51.114;6.900;2022-07-29T00:40:06;101219.63;;;21.27
37452;BMP280;23314;51.114;6.900;2022-07-29T00:42:47;101205.31;;;21.27
37452;BMP280;23314;51.114;6.900;2022-07-29T00:45:13;101210.47;;;21.25
37452;BMP280;23314;51.114;6.900;2022-07-29T00:47:39;101199.34;;;21.23
37452;BMP280;23314;51.114;6.900;2022-07-29T00:50:06;101200.09;;;21.23
37452;BMP280;23314;51.114;6.900;2022-07-29T00:52:33;101196.63;;;21.23
37452;BMP280;23314;51.114;6.900;2022-07-29T00:54:58;101192.44;;;21.22
37452;BMP280;23314;51.114;6.900;2022-07-29T00:57:24;101190.94;;;21.21
37452;BMP280;23314;51.114;6.900;2022-07-29T00:59:49;101189.44;;;21.20
37452;BMP280;23314;51.114;6.900;2022-07-29T01:02:15;101184.47;;;21.18
37452;BMP280;23314;51.114;6.900;2022-07-29T01:04:40;101181.75;;;21.18
37452;BMP280;23314;51.114;6.900;2022-07-29T01:07:06;101178.78;;;21.16
37452;BMP280;23314;51.114;6.900;2022-07-29T01:09:33;101182.22;;;21.16
37452;BMP280;23314;51.114;6.900;2022-07-29T01:12:00;101179.50;;;21.16
37452;BMP280;23314;51.114;6.900;2022-07-29T01:14:27;101185.41;;;21.15
37452;BMP280;23314;51.114;6.900;2022-07-29T01:17:26;101174.78;;;21.11
37452;BMP280;23314;51.114;6.900;2022-07-29T01:20:07;101164.84;;;21.08
37452;BMP280;23314;51.114;6.900;2022-07-29T01:25:39;101165.50;;;21.03
37452;BMP280;23314;51.114;6.900;2022-07-29T01:31:16;101161.03;;;21.00
37452;BMP280;23314;51.114;6.900;2022-07-29T01:33:45;101157.56;;;20.99
37452;BMP280;23314;51.114;6.900;2022-07-29T01:36:23;101161.50;;;20.98
37452;BMP280;23314;51.114;6.900;2022-07-29T01:38:59;101163.94;;;20.96
37452;BMP280;23314;51.114;6.900;2022-07-29T01:41:31;101159.72;;;20.95
37452;BMP280;23314;51.114;6.900;2022-07-29T01:44:01;101161.66;;;20.95
37452;BMP280;23314;51.114;6.900;2022-07-29T01:46:31;101158.22;;;20.94
37452;BMP280;23314;51.114;6.900;2022-07-29T01:49:06;101150.81;;;20.95
37452;BMP280;23314;51.114;6.900;2022-07-29T01:51:41;101147.09;;;20.92
37452;BMP280;23314;51.114;6.900;2022-07-29T01:54:26;101149.53;;;20.90
37452;BMP280;23314;51.114;6.900;2022-07-29T01:56:55;101151.47;;;20.90
37452;BMP280;23314;51.114;6.900;2022-07-29T01:59:23;101150.00;;;20.89
37452;BMP280;23314;51.114;6.900;2022-07-29T02:01:50;101149.72;;;20.87
37452;BMP280;23314;51.114;6.900;2022-07-29T02:04:17;101154.38;;;20.86
37452;BMP280;23314;51.114;6.900;2022-07-29T02:06:44;101150.94;;;20.86
37452;BMP280;23314;51.114;6.900;2022-07-29T02:09:12;101161.00;;;20.85
37452;BMP280;23314;51.114;6.900;2022-07-29T02:11:38;101160.00;;;20.83
37452;BMP280;23314;51.114;6.900;2022-07-29T02:14:06;101155.22;;;20.77
37452;BMP280;23314;51.114;6.900;2022-07-29T02:16:33;101158.13;;;20.74
37452;BMP280;23314;51.114;6.900;2022-07-29T02:19:01;101153.34;;;20.69
37452;BMP280;23314;51.114;6.900;2022-07-29T02:21:27;101161.69;;;20.65
37452;BMP280;23314;51.114;6.900;2022-07-29T02:23:56;101152.22;;;20.60
37452;BMP280;23314;51.114;6.900;2022-07-29T02:26:24;101153.94;;;20.58
37452;BMP280;23314;51.114;6.900;2022-07-29T02:28:52;101156.34;;;20.56
37452;BMP280;23314;51.114;6.900;2022-07-29T02:31:21;101148.22;;;20.56
37452;BMP280;23314;51.114;6.900;2022-07-29T02:33:48;101152.88;;;20.55
37452;BMP280;23314;51.114;6.900;2022-07-29T02:36:15;101149.41;;;20.55
37452;BMP280;23314;51.114;6.900;2022-07-29T02:38:42;101151.84;;;20.53
37452;BMP280;23314;51.114;6.900;2022-07-29T02:41:20;101154.00;;;20.49
37452;BMP280;23314;51.114;6.900;2022-07-29T02:43:47;101153.69;;;20.46
37452;BMP280;23314;51.114;6.900;2022-07-29T02:46:17;101163.03;;;20.45
37452;BMP280;23314;51.114;6.900;2022-07-29T02:48:50;101162.75;;;20.43
37452;BMP280;23314;51.114;6.900;2022-07-29T02:51:24;101174.06;;;20.42
37452;BMP280;23314;51.114;6.900;2022-07-29T02:53:53;101174.06;;;20.42
37452;BMP280;23314;51.114;6.900;2022-07-29T02:56:23;101180.22;;;20.42
37452;BMP280;23314;51.114;6.900;2022-07-29T02:58:54;101178.28;;;20.43
37452;BMP280;23314;51.114;6.900;2022-07-29T03:01:23;101181.00;;;20.43
37452;BMP280;23314;51.114;6.900;2022-07-29T03:03:51;101172.66;;;20.46
37452;BMP280;23314;51.114;6.900;2022-07-29T03:06:19;101187.28;;;20.49
37452;BMP280;23314;51.114;6.900;2022-07-29T03:08:46;101186.78;;;20.51
37452;BMP280;23314;51.114;6.900;2022-07-29T03:11:12;101189.50;;;20.51
37452;BMP280;23314;51.114;6.900;2022-07-29T03:13:39;101186.34;;;20.52
37452;BMP280;23314;51.114;6.900;2022-07-29T03:16:05;101192.50;;;20.53
37452;BMP280;23314;51.114;6.900;2022-07-29T03:18:31;101199.91;;;20.52
37452;BMP280;23314;51.114;6.900;2022-07-29T03:20:56;101204.56;;;20.52
37452;BMP280;23314;51.114;6.900;2022-07-29T03:23:23;101206.53;;;20.51
37452;BMP280;23314;51.114;6.900;2022-07-29T03:25:52;101198.84;;;20.50
37452;BMP280;23314;51.114;6.900;2022-07-29T03:28:17;101201.28;;;20.47
37452;BMP280;23314;51.114;6.900;2022-07-29T03:30:43;101199.03;;;20.46
37452;BMP280;23314;51.114;6.900;2022-07-29T03:33:08;101207.91;;;20.46
37452;BMP280;23314;51.114;6.900;2022-07-29T03:35:34;101205.38;;;20.43
37452;BMP280;23314;51.114;6.900;2022-07-29T03:37:59;101218.63;;;20.41
37452;BMP280;23314;51.114;6.900;2022-07-29T03:40:27;101213.41;;;20.37
37452;BMP280;23314;51.114;6.900;2022-07-29T03:42:56;101214.34;;;20.34
37452;BMP280;23314;51.114;6.900;2022-07-29T03:45:22;101216.16;;;20.28
37452;BMP280;23314;51.114;6.900;2022-07-29T03:47:53;101210.34;;;20.20
37452;BMP280;23314;51.114;6.900;2022-07-29T03:50:20;101222.75;;;20.12
37452;BMP280;23314;51.114;6.900;2022-07-29T03:52:46;101215.44;;;20.03
37452;BMP280;23314;51.114;6.900;2022-07-29T03:55:13;101206.13;;;19.95
37452;BMP280;23314;51.114;6.900;2022-07-29T03:57:39;101207.72;;;19.87
37452;BMP280;23314;51.114;6.900;2022-07-29T04:00:05;101205.81;;;19.78
37452;BMP280;23314;51.114;6.900;2022-07-29T04:02:32;101217.69;;;19.71
37452;BMP280;23314;51.114;6.900;2022-07-29T04:04:57;101225.97;;;19.68
37452;BMP280;23314;51.114;6.900;2022-07-29T04:07:23;101212.94;;;19.57
37452;BMP280;23314;51.114;6.900;2022-07-29T04:09:48;101219.25;;;19.54
37452;BMP280;23314;51.114;6.900;2022-07-29T04:12:13;101203.94;;;19.51
37452;BMP280;23314;51.114;6.900;2022-07-29T04:14:38;101199.91;;;19.46
37452;BMP280;23314;51.114;6.900;2022-07-29T04:17:04;101208.78;;;19.47
37452;BMP280;23314;51.114;6.900;2022-07-29T04:19:30;101213.44;;;19.46
37452;BMP280;23314;51.114;6.900;2022-07-29T04:21:56;101219.31;;;19.45
37452;BMP280;23314;51.114;6.900;2022-07-29T04:24:21;101225.91;;;19.43
37452;BMP280;23314;51.114;6.900;2022-07-29T04:26:47;101221.25;;;19.44
37452;BMP280;23314;51.114;6.900;2022-07-29T04:29:12;101220.97;;;19.42
37452;BMP280;23314;51.114;6.900;2022-07-29T04:31:40;101209.41;;;19.41
37452;BMP280;23314;51.114;6.900;2022-07-29T04:34:05;101206.69;;;19.41
37452;BMP280;23314;51.114;6.900;2022-07-29T04:36:30;101211.53;;;19.37
37452;BMP280;23314;51.114;6.900;2022-07-29T04:38:56;101207.72;;;19.35
37452;BMP280;23314;51.114;6.900;2022-07-29T04:41:21;101205.50;;;19.33
37452;BMP280;23314;51.114;6.900;2022-07-29T04:43:46;101200.81;;;19.34
37452;BMP280;23314;51.114;6.900;2022-07-29T04:46:12;101202.31;;;19.35
37452;BMP280;23314;51.114;6.900;2022-07-29T04:48:37;101194.97;;;19.35
37452;BMP280;23314;51.114;6.900;2022-07-29T04:51:02;101200.38;;;19.35
37452;BMP280;23314;51.114;6.900;2022-07-29T04:53:28;101205.34;;;19.37
37452;BMP280;23314;51.114;6.900;2022-07-29T04:55:53;101214.50;;;19.39
37452;BMP280;23314;51.114;6.900;2022-07-29T04:58:19;101207.13;;;19.40
37452;BMP280;23314;51.114;6.900;2022-07-29T05:00:44;101215.09;;;19.43
37452;BMP280;23314;51.114;6.900;2022-07-29T05:03:10;101219.13;;;19.48
37452;BMP280;23314;51.114;6.900;2022-07-29T05:05:35;101218.53;;;19.53
37452;BMP280;23314;51.114;6.900;2022-07-29T05:08:00;101215.19;;;19.58
37452;BMP280;23314;51.114;6.900;2022-07-29T05:10:26;101221.50;;;19.65
37452;BMP280;23314;51.114;6.900;2022-07-29T05:12:51;101220.38;;;19.71
37452;BMP280;23314;51.114;6.900;2022-07-29T05:15:16;101227.91;;;19.76
37452;BMP280;23314;51.114;6.900;2022-07-29T05:17:43;101226.69;;;19.77
37452;BMP280;23314;51.114;6.900;2022-07-29T05:20:09;101236.16;;;19.82
37452;BMP280;23314;51.114;6.900;2022-07-29T05:22:34;101231.78;;;19.85
37452;BMP280;23314;51.114;6.900;2022-07-29T05:24:59;101231.16;;;19.90
37452;BMP280;23314;51.114;6.900;2022-07-29T05:27:25;101243.59;;;19.97
37452;BMP280;23314;51.114;6.900;2022-07-29T05:29:50;101232.69;;;20.06
37452;BMP280;23314;51.114;6.900;2022-07-29T05:32:15;101231.34;;;20.10
37452;BMP280;23314;51.114;6.900;2022-07-29T05:34:41;101230.72;;;20.16
37452;BMP280;23314;51.114;6.900;2022-07-29T05:37:07;101228.56;;;20.20
37452;BMP280;23314;51.114;6.900;2022-07-29T05:39:32;101224.78;;;20.26
37452;BMP280;23314;51.114;6.900;2022-07-29T05:41:57;101226.38;;;20.33
37452;BMP280;23314;51.114;6.900;2022-07-29T05:44:22;101226.75;;;20.41
37452;BMP280;23314;51.114;6.900;2022-07-29T05:46:48;101230.66;;;20.49
37452;BMP280;23314;51.114;6.900;2022-07-29T05:49:13;101228.75;;;20.55
37452;BMP280;23314;51.114;6.900;2022-07-29T05:51:38;101227.50;;;20.66
37452;BMP280;23314;51.114;6.900;2022-07-29T05:54:04;101230.41;;;20.77
37452;BMP280;23314;51.114;6.900;2022-07-29T05:56:29;101238.56;;;20.92
37452;BMP280;23314;51.114;6.900;2022-07-29T05:58:55;101250.44;;;21.09
37452;BMP280;23314;51.114;6.900;2022-07-29T06:01:20;101249.69;;;21.24
37452;BMP280;23314;51.114;6.900;2022-07-29T06:03:45;101256.88;;;21.42
37452;BMP280;23314;51.114;6.900;2022-07-29T06:06:11;101253.56;;;21.52
37452;BMP280;23314;51.114;6.900;2022-07-29T06:08:37;101269.09;;;21.67
37452;BMP280;23314;51.114;6.900;2022-07-29T06:11:04;101271.50;;;21.80
37452;BMP280;23314;51.114;6.900;2022-07-29T06:13:31;101269.22;;;21.93
37452;BMP280;23314;51.114;6.900;2022-07-29T06:15:56;101273.00;;;22.01
37452;BMP280;23314;51.114;6.900;2022-07-29T06:18:21;101274.31;;;22.06
37452;BMP280;23314;51.114;6.900;2022-07-29T06:20:50;101271.91;;;22.08
37452;BMP280;23314;51.114;6.900;2022-07-29T06:23:15;101271.13;;;22.08
37452;BMP280;23314;51.114;6.900;2022-07-29T06:25:41;101279.06;;;22.11
37452;BMP280;23314;51.114;6.900;2022-07-29T06:28:06;101285.72;;;22.10
37452;BMP280;23314;51.114;6.900;2022-07-29T06:30:32;101284.97;;;22.10
37452;BMP280;23314;51.114;6.900;2022-07-29T06:32:57;101299.78;;;22.09
37452;BMP280;23314;51.114;6.900;2022-07-29T06:35:22;101292.41;;;22.09
37452;BMP280;23314;51.114;6.900;2022-07-29T06:37:48;101290.63;;;22.06
37452;BMP280;23314;51.114;6.900;2022-07-29T06:40:13;101294.34;;;22.09
37452;BMP280;23314;51.114;6.900;2022-07-29T06:42:57;101298.34;;;22.13
37452;BMP280;23314;51.114;6.900;2022-07-29T06:45:22;101298.25;;;22.23
37452;BMP280;23314;51.114;6.900;2022-07-29T06:47:47;101299.06;;;22.29
37452;BMP280;23314;51.114;6.900;2022-07-29T06:50:14;101300.06;;;22.31
37452;BMP280;23314;51.114;6.900;2022-07-29T06:52:40;101305.03;;;22.33
37452;BMP280;23314;51.114;6.900;2022-07-29T06:55:06;101297.13;;;22.35
37452;BMP280;23314;51.114;6.900;2022-07-29T06:57:32;101296.16;;;22.32
37452;BMP280;23314;51.114;6.900;2022-07-29T06:59:57;101286.97;;;22.30
37452;BMP280;23314;51.114;6.900;2022-07-29T07:02:23;101285.19;;;22.27
37452;BMP280;23314;51.114;6.900;2022-07-29T07:04:48;101291.03;;;22.19
37452;BMP280;23314;51.114;6.900;2022-07-29T07:07:14;101296.59;;;22.10
37452;BMP280;23314;51.114;6.900;2022-07-29T07:09:39;101313.97;;;21.98
37452;BMP280;23314;51.114;6.900;2022-07-29T07:12:04;101315.69;;;21.80
37452;BMP280;23314;51.114;6.900;2022-07-29T07:14:30;101309.81;;;21.67
37452;BMP280;23314;51.114;6.900;2022-07-29T07:16:55;101310.13;;;21.54
37452;BMP280;23314;51.114;6.900;2022-07-29T07:19:21;101312.75;;;21.48
37452;BMP280;23314;51.114;6.900;2022-07-29T07:21:46;101320.31;;;21.44
37452;BMP280;23314;51.114;6.900;2022-07-29T07:24:11;101311.34;;;21.38
37452;BMP280;23314;51.114;6.900;2022-07-29T07:26:36;101308.44;;;21.27
37452;BMP280;23314;51.114;6.900;2022-07-29T07:29:03;101305.16;;;21.08
37452;BMP280;23314;51.114;6.900;2022-07-29T07:31:28;101298.50;;;20.94
37452;BMP280;23314;51.114;6.900;2022-07-29T07:33:53;101284.22;;;20.69
37452;BMP280;23314;51.114;6.900;2022-07-29T07:36:19;101280.97;;;20.41
37452;BMP280;23314;51.114;6.900;2022-07-29T07:38:44;101279.50;;;20.06
37452;BMP280;23314;51.114;6.900;2022-07-29T07:41:09;101298.25;;;19.86
37452;BMP280;23314;51.114;6.900;2022-07-29T07:43:35;101311.81;;;19.76
37452;BMP280;23314;51.114;6.900;2022-07-29T07:46:00;101311.94;;;19.82
37452;BMP280;23314;51.114;6.900;2022-07-29T07:48:26;101310.69;;;19.92
37452;BMP280;23314;51.114;6.900;2022-07-29T07:50:51;101300.75;;;19.99
37452;BMP280;23314;51.114;6.900;2022-07-29T07:53:16;101300.91;;;19.95
37452;BMP280;23314;51.114;6.900;2022-07-29T07:55:42;101291.66;;;19.87
37452;BMP280;23314;51.114;6.900;2022-07-29T07:58:08;101281.88;;;19.80
37452;BMP280;23314;51.114;6.900;2022-07-29T08:00:34;101289.25;;;19.80
37452;BMP280;23314;51.114;6.900;2022-07-29T08:02:59;101291.94;;;19.80
37452;BMP280;23314;51.114;6.900;2022-07-29T08:05:25;101292.72;;;19.80
37452;BMP280;23314;51.114;6.900;2022-07-29T08:07:50;101297.19;;;19.83
37452;BMP280;23314;51.114;6.900;2022-07-29T08:10:17;101301.72;;;19.86
37452;BMP280;23314;51.114;6.900;2022-07-29T08:13:05;101312.53;;;19.86
37452;BMP280;23314;51.114;6.900;2022-07-29T08:15:31;101305.00;;;19.90
37452;BMP280;23314;51.114;6.900;2022-07-29T08:17:56;101312.03;;;19.97
37452;BMP280;23314;51.114;6.900;2022-07-29T08:20:21;101323.88;;;20.09
37452;BMP280;23314;51.114;6.900;2022-07-29T08:22:47;101312.38;;;20.23
37452;BMP280;23314;51.114;6.900;2022-07-29T08:25:12;101306.91;;;20.33
37452;BMP280;23314;51.114;6.900;2022-07-29T08:27:37;101309.75;;;20.38
37452;BMP280;23314;51.114;6.900;2022-07-29T08:30:03;101308.06;;;20.41
37452;BMP280;23314;51.114;6.900;2022-07-29T08:32:29;101293.94;;;20.37
37452;BMP280;23314;51.114;6.900;2022-07-29T08:34:54;101295.78;;;20.30
37452;BMP280;23314;51.114;6.900;2022-07-29T08:37:20;101275.16;;;20.33
37452;BMP280;23314;51.114;6.900;2022-07-29T08:39:45;101278.97;;;20.26
37452;BMP280;23314;51.114;6.900;2022-07-29T08:42:11;101281.19;;;20.28
37452;BMP280;23314;51.114;6.900;2022-07-29T08:44:36;101286.69;;;20.43
37452;BMP280;23314;51.114;6.900;2022-07-29T08:47:02;101285.69;;;20.55
37452;BMP280;23314;51.114;6.900;2022-07-29T08:49:27;101289.53;;;20.63
37452;BMP280;23314;51.114;6.900;2022-07-29T08:51:53;101293.75;;;20.64
37452;BMP280;23314;51.114;6.900;2022-07-29T08:54:19;101289.28;;;20.61
37452;BMP280;23314;51.114;6.900;2022-07-29T08:56:51;101289.47;;;20.58
37452;BMP280;23314;51.114;6.900;2022-07-29T08:59:19;101292.59;;;20.56
37452;BMP280;23314;51.114;6.900;2022-07-29T09:01:46;101292.16;;;20.58
37452;BMP280;23314;51.114;6.900;2022-07-29T09:04:13;101293.03;;;20.64
37452;BMP280;23314;51.114;6.900;2022-07-29T09:06:44;101294.03;;;20.67
37452;BMP280;23314;51.114;6.900;2022-07-29T09:09:10;101295.66;;;20.73
37452;BMP280;23314;51.114;6.900;2022-07-29T09:11:37;101302.59;;;20.74
37452;BMP280;23314;51.114;6.900;2022-07-29T09:14:02;101291.72;;;20.74
37452;BMP280;23314;51.114;6.900;2022-07-29T09:16:50;101298.94;;;20.77
37452;BMP280;23314;51.114;6.900;2022-07-29T09:19:31;101296.34;;;20.83
37452;BMP280;23314;51.114;6.900;2022-07-29T09:21:59;101302.91;;;20.91
37452;BMP280;23314;51.114;6.900;2022-07-29T09:24:27;101305.56;;;21.01
37452;BMP280;23314;51.114;6.900;2022-07-29T09:27:01;101304.13;;;21.05
37452;BMP280;23314;51.114;6.900;2022-07-29T09:29:27;101305.94;;;21.08
37452;BMP280;23314;51.114;6.900;2022-07-29T09:31:54;101314.06;;;21.08
37452;BMP280;23314;51.114;6.900;2022-07-29T09:34:27;101309.06;;;21.07
37452;BMP280;23314;51.114;6.900;2022-07-29T09:36:57;101310.47;;;21.02
37452;BMP280;23314;51.114;6.900;2022-07-29T09:39:36;101304.47;;;20.98
37452;BMP280;23314;51.114;6.900;2022-07-29T09:42:04;101299.69;;;20.93
37452;BMP280;23314;51.114;6.900;2022-07-29T09:44:47;101300.94;;;20.92
37452;BMP280;23314;51.114;6.900;2022-07-29T09:47:14;101303.09;;;20.88
37452;BMP280;23314;51.114;6.900;2022-07-29T09:49:57;101301.28;;;20.85
37452;BMP280;23314;51.114;6.900;2022-07-29T09:52:29;101301.75;;;20.83
37452;BMP280;23314;51.114;6.900;2022-07-29T09:55:08;101296.81;;;20.81
37452;BMP280;23314;51.114;6.900;2022-07-29T09:57:34;101294.47;;;20.89
37452;BMP280;23314;51.114;6.900;2022-07-29T10:00:03;101307.13;;;20.92
37452;BMP280;23314;51.114;6.900;2022-07-29T10:02:34;101299.34;;;21.00
37452;BMP280;23314;51.114;6.900;2022-07-29T10:05:01;101307.22;;;21.13
37452;BMP280;23314;51.114;6.900;2022-07-29T10:07:43;101313.66;;;21.30
37452;BMP280;23314;51.114;6.900;2022-07-29T10:10:09;101301.31;;;21.44
37452;BMP280;23314;51.114;6.900;2022-07-29T10:12:48;101309.75;;;21.61
37452;BMP280;23314;51.114;6.900;2022-07-29T10:15:15;101311.69;;;21.76
37452;BMP280;23314;51.114;6.900;2022-07-29T10:17:41;101315.69;;;21.95
37452;BMP280;23314;51.114;6.900;2022-07-29T10:20:07;101311.19;;;22.13
37452;BMP280;23314;51.114;6.900;2022-07-29T10:22:33;101309.00;;;22.32
37452;BMP280;23314;51.114;6.900;2022-07-29T10:24:59;101304.47;;;22.49
37452;BMP280;23314;51.114;6.900;2022-07-29T10:27:24;101303.66;;;22.64
37452;BMP280;23314;51.114;6.900;2022-07-29T10:29:50;101311.44;;;22.77
37452;BMP280;23314;51.114;6.900;2022-07-29T10:35:18;101315.63;;;22.98
37452;BMP280;23314;51.114;6.900;2022-07-29T10:38:21;101313.22;;;23.06
37452;BMP280;23314;51.114;6.900;2022-07-29T10:41:10;101315.53;;;23.19
37452;BMP280;23314;51.114;6.900;2022-07-29T10:44:03;101311.16;;;23.27
37452;BMP280;23314;51.114;6.900;2022-07-29T10:46:35;101308.72;;;23.29
37452;BMP280;23314;51.114;6.900;2022-07-29T10:49:11;101308.19;;;23.31
37452;BMP280;23314;51.114;6.900;2022-07-29T10:54:43;101306.31;;;23.42
37452;BMP280;23314;51.114;6.900;2022-07-29T11:07:22;101311.31;;;24.59
37452;BMP280;23314;51.114;6.900;2022-07-29T11:15:07;101310.56;;;25.43
37452;BMP280;23314;51.114;6.900;2022-07-29T11:22:59;101303.75;;;25.84
37452;BMP280;23314;51.114;6.900;2022-07-29T11:25:25;101314.16;;;25.85
37452;BMP280;23314;51.114;6.900;2022-07-29T11:28:08;101309.25;;;25.72
37452;BMP280;23314;51.114;6.900;2022-07-29T11:30:47;101298.13;;;25.59
37452;BMP280;23314;51.114;6.900;2022-07-29T11:33:29;101312.06;;;25.55
37452;BMP280;23314;51.114;6.900;2022-07-29T11:36:12;101310.06;;;25.56
37452;BMP280;23314;51.114;6.900;2022-07-29T11:38:38;101296.09;;;25.59
37452;BMP280;23314;51.114;6.900;2022-07-29T11:41:20;101300.81;;;25.76
37452;BMP280;23314;51.114;6.900;2022-07-29T11:43:47;101303.00;;;25.77
37452;BMP280;23314;51.114;6.900;2022-07-29T11:46:13;101293.84;;;25.75
37452;BMP280;23314;51.114;6.900;2022-07-29T11:48:42;101300.00;;;25.81
37452;BMP280;23314;51.114;6.900;2022-07-29T11:51:11;101292.81;;;25.84
37452;BMP280;23314;51.114;6.900;2022-07-29T11:53:38;101285.06;;;25.93
37452;BMP280;23314;51.114;6.900;2022-07-29T11:56:07;101289.97;;;26.06
37452;BMP280;23314;51.114;6.900;2022-07-29T11:58:33;101288.75;;;26.02
37452;BMP280;23314;51.114;6.900;2022-07-29T12:00:59;101291.50;;;26.02
37452;BMP280;23314;51.114;6.900;2022-07-29T12:03:27;101288.25;;;26.03
37452;BMP280;23314;51.114;6.900;2022-07-29T12:05:52;101289.19;;;26.11
37452;BMP280;23314;51.114;6.900;2022-07-29T12:08:20;101294.13;;;26.24
37452;BMP280;23314;51.114;6.900;2022-07-29T12:10:50;101303.78;;;26.31
37452;BMP280;23314;51.114;6.900;2022-07-29T12:13:18;101294.03;;;26.36
37452;BMP280;23314;51.114;6.900;2022-07-29T12:15:55;101297.59;;;26.61
37452;BMP280;23314;51.114;6.900;2022-07-29T12:18:21;101294.75;;;26.72
37452;BMP280;23314;51.114;6.900;2022-07-29T12:20:47;101302.38;;;26.85
37452;BMP280;23314;51.114;6.900;2022-07-29T12:23:13;101292.84;;;26.92
37452;BMP280;23314;51.114;6.900;2022-07-29T12:25:41;101298.94;;;27.09
37452;BMP280;23314;51.114;6.900;2022-07-29T12:28:13;101302.72;;;27.00
37452;BMP280;23314;51.114;6.900;2022-07-29T12:30:46;101300.34;;;26.91
37452;BMP280;23314;51.114;6.900;2022-07-29T12:33:25;101306.88;;;26.82
37452;BMP280;23314;51.114;6.900;2022-07-29T12:36:02;101304.44;;;26.73
37452;BMP280;23314;51.114;6.900;2022-07-29T12:38:29;101309.00;;;26.65
37452;BMP280;23314;51.114;6.900;2022-07-29T12:40:54;101299.16;;;26.50
37452;BMP280;23314;51.114;6.900;2022-07-29T12:43:24;101291.28;;;26.36
37452;BMP280;23314;51.114;6.900;2022-07-29T12:45:55;101292.84;;;26.31
37452;BMP280;23314;51.114;6.900;2022-07-29T12:48:37;101294.78;;;26.36
37452;BMP280;23314;51.114;6.900;2022-07-29T12:51:04;101285.00;;;26.46
37452;BMP280;23314;51.114;6.900;2022-07-29T12:53:31;101287.56;;;26.69
37452;BMP280;23314;51.114;6.900;2022-07-29T12:55:57;101287.59;;;26.94
37452;BMP280;23314;51.114;6.900;2022-07-29T12:58:34;101281.00;;;27.08
37452;BMP280;23314;51.114;6.900;2022-07-29T13:01:15;101278.66;;;27.18
37452;BMP280;23314;51.114;6.900;2022-07-29T13:04:02;101278.38;;;27.21
37452;BMP280;23314;51.114;6.900;2022-07-29T13:06:33;101279.84;;;27.22
37452;BMP280;23314;51.114;6.900;2022-07-29T13:08:59;101279.94;;;27.17
37452;BMP280;23314;51.114;6.900;2022-07-29T13:11:34;101270.72;;;27.14
37452;BMP280;23314;51.114;6.900;2022-07-29T13:14:00;101268.72;;;27.15
37452;BMP280;23314;51.114;6.900;2022-07-29T13:16:25;101292.06;;;27.21
37452;BMP280;23314;51.114;6.900;2022-07-29T13:19:12;101274.91;;;27.21
37452;BMP280;23314;51.114;6.900;2022-07-29T13:21:39;101277.88;;;27.23
37452;BMP280;23314;51.114;6.900;2022-07-29T13:24:07;101287.84;;;27.20
37452;BMP280;23314;51.114;6.900;2022-07-29T13:26:33;101275.31;;;27.25
37452;BMP280;23314;51.114;6.900;2022-07-29T13:28:59;101280.06;;;27.25
37452;BMP280;23314;51.114;6.900;2022-07-29T13:31:24;101273.59;;;27.28
37452;BMP280;23314;51.114;6.900;2022-07-29T13:33:50;101263.31;;;27.34
37452;BMP280;23314;51.114;6.900;2022-07-29T13:36:15;101274.56;;;27.30
37452;BMP280;23314;51.114;6.900;2022-07-29T13:38:41;101270.28;;;27.35
37452;BMP280;23314;51.114;6.900;2022-07-29T13:41:07;101269.84;;;27.31
37452;BMP280;23314;51.114;6.900;2022-07-29T13:43:32;101274.69;;;27.38
37452;BMP280;23314;51.114;6.900;2022-07-29T13:45:57;101270.53;;;27.31
37452;BMP280;23314;51.114;6.900;2022-07-29T13:48:23;101266.84;;;27.29
37452;BMP280;23314;51.114;6.900;2022-07-29T13:50:48;101263.06;;;27.32
37452;BMP280;23314;51.114;6.900;2022-07-29T13:53:14;101263.31;;;27.34
37452;BMP280;23314;51.114;6.900;2022-07-29T13:55:39;101266.34;;;27.30
37452;BMP280;23314;51.114;6.900;2022-07-29T13:58:04;101261.06;;;27.32
37452;BMP280;23314;51.114;6.900;2022-07-29T14:00:30;101265.06;;;27.31
37452;BMP280;23314;51.114;6.900;2022-07-29T14:02:56;101265.38;;;27.28
37452;BMP280;23314;51.114;6.900;2022-07-29T14:05:21;101260.59;;;27.28
37452;BMP280;23314;51.114;6.900;2022-07-29T14:07:46;101257.09;;;27.33
37452;BMP280;23314;51.114;6.900;2022-07-29T14:10:12;101253.81;;;27.35
37452;BMP280;23314;51.114;6.900;2022-07-29T14:12:37;101252.59;;;27.36
37452;BMP280;23314;51.114;6.900;2022-07-29T14:15:03;101258.97;;;27.44
37452;BMP280;23314;51.114;6.900;2022-07-29T14:17:29;101254.47;;;27.41
37452;BMP280;23314;51.114;6.900;2022-07-29T14:19:54;101258.72;;;27.42
37452;BMP280;23314;51.114;6.900;2022-07-29T14:22:19;101249.91;;;27.49
37452;BMP280;23314;51.114;6.900;2022-07-29T14:24:45;101257.97;;;27.60
37452;BMP280;23314;51.114;6.900;2022-07-29T14:27:10;101274.97;;;27.59
37452;BMP280;23314;51.114;6.900;2022-07-29T14:29:36;101259.78;;;27.58
37452;BMP280;23314;51.114;6.900;2022-07-29T14:32:02;101269.47;;;27.59
37452;BMP280;23314;51.114;6.900;2022-07-29T14:34:27;101273.56;;;27.52